Time;durP1;ratioP1;P1;durP2;ratioP2;P2;SDS_P1;SDS_P2;PMS_P1;PMS_P2;Temp;Humidity;BMP_temperature;BMP_pressure;BME280_temperature;BME280_humidity;BME280_pressure;Samples;Min_cycle;Max_cycle;Signal;HPM_P1;HPM_P2
2024/01/21 00:00:31;;;;;;;4.43;2.33;;;;;;;;;;5092049;28;20693;-78
2024/01/21 00:02:58;;;;;;;3.27;1.90;;;;;;;;;;5091531;28;20224;-78
2024/01/21 00:05:26;;;;;;;2.07;1.93;;;;;;;;;;5091475;28;20254;-78
2024/01/21 00:07:55;;;;;;;2.40;1.97;;;;;;;;;;5091555;28;20230;-80
2024/01/21 00:10:22;;;;;;;1.73;1.63;;;;;;;;;;5091556;28;20201;-79
2024/01/21 00:12:49;;;;;;;1.73;1.60;;;;;;;;;;5091378;28;20206;-78
2024/01/21 00:15:15;;;;;;;2.33;2.10;;;;;;;;;;5091450;28;20208;-78
2024/01/21 00:17:42;;;;;;;1.83;1.50;;;;;;;;;;5091481;28;20192;-78
2024/01/21 00:20:09;;;;;;;1.87;1.60;;;;;;;;;;5091428;28;20201;-79
2024/01/21 00:22:40;;;;;;;2.27;2.07;;;;;;;;;;5077760;28;20208;-78
2024/01/21 00:25:09;;;;;;;1.90;1.80;;;;;;;;;;5091114;28;20678;-79
2024/01/21 00:27:36;;;;;;;1.73;1.63;;;;;;;;;;5078360;28;20573;-79
2024/01/21 00:30:02;;;;;;;1.97;1.87;;;;;;;;;;5090997;28;20224;-78
2024/01/21 00:32:29;;;;;;;2.07;1.70;;;;;;;;;;5091356;28;20232;-78
2024/01/21 00:34:56;;;;;;;3.03;1.80;;;;;;;;;;5091128;28;20200;-78
2024/01/21 00:37:23;;;;;;;2.40;2.20;;;;;;;;;;5090826;28;20200;-78
2024/01/21 00:39:51;;;;;;;6.33;4.17;;;;;;;;;;5090844;28;20207;-78
2024/01/21 00:42:17;;;;;;;3.63;2.37;;;;;;;;;;5091061;28;20200;-78
2024/01/21 00:44:44;;;;;;;3.23;2.33;;;;;;;;;;5090320;28;20208;-78
2024/01/21 00:47:11;;;;;;;3.50;2.73;;;;;;;;;;5090969;28;20601;-78
2024/01/21 00:49:40;;;;;;;2.03;1.83;;;;;;;;;;5090421;28;20596;-78
2024/01/21 00:52:08;;;;;;;2.67;2.03;;;;;;;;;;5090746;28;20227;-78
2024/01/21 00:54:35;;;;;;;2.50;1.90;;;;;;;;;;5090866;28;20208;-78
2024/01/21 00:57:04;;;;;;;2.60;2.40;;;;;;;;;;5091019;28;20199;-78
2024/01/21 00:59:30;;;;;;;2.30;2.10;;;;;;;;;;5090727;28;20678;-79
2024/01/21 01:01:57;;;;;;;3.43;2.20;;;;;;;;;;5091034;28;20200;-78
2024/01/21 01:04:24;;;;;;;2.17;1.70;;;;;;;;;;5090619;28;20219;-78
2024/01/21 01:06:51;;;;;;;1.83;1.63;;;;;;;;;;5090904;28;20200;-77
2024/01/21 01:09:17;;;;;;;2.23;2.00;;;;;;;;;;5093025;28;20203;-78
2024/01/21 01:11:44;;;;;;;2.70;2.13;;;;;;;;;;5094931;28;20227;-78
2024/01/21 01:14:12;;;;;;;2.47;2.00;;;;;;;;;;5094677;28;20568;-78
2024/01/21 01:16:39;;;;;;;2.27;2.07;;;;;;;;;;5094958;28;20249;-78
2024/01/21 01:19:06;;;;;;;6.93;4.20;;;;;;;;;;5094729;28;20202;-77
2024/01/21 01:21:33;;;;;;;6.13;4.03;;;;;;;;;;5095017;28;20212;-79
2024/01/21 01:24:00;;;;;;;4.63;3.47;;;;;;;;;;5094466;28;20615;-79
2024/01/21 01:26:27;;;;;;;2.27;2.13;;;;;;;;;;5094975;28;20212;-79
2024/01/21 01:28:54;;;;;;;3.40;2.07;;;;;;;;;;5094449;28;20247;-79
2024/01/21 01:31:22;;;;;;;3.10;2.20;;;;;;;;;;5094787;28;20224;-79
2024/01/21 01:33:50;;;;;;;2.23;1.63;;;;;;;;;;5094039;28;20582;-79
2024/01/21 01:36:16;;;;;;;2.33;2.10;;;;;;;;;;5094691;28;20204;-79
2024/01/21 01:38:44;;;;;;;4.00;2.67;;;;;;;;;;5094210;28;20200;-79
2024/01/21 01:41:11;;;;;;;3.77;1.93;;;;;;;;;;5094284;28;20208;-79
2024/01/21 01:43:37;;;;;;;1.50;1.40;;;;;;;;;;5094129;28;20200;-80
2024/01/21 01:46:05;;;;;;;2.20;1.80;;;;;;;;;;5094605;28;20211;-80
2024/01/21 01:48:34;;;;;;;3.17;1.53;;;;;;;;;;5093798;28;20283;-80
2024/01/21 01:51:03;;;;;;;26.40;13.07;;;;;;;;;;5094528;28;20201;-79
2024/01/21 01:53:30;;;;;;;2.00;1.80;;;;;;;;;;5081184;28;20226;-79
2024/01/21 01:55:57;;;;;;;2.10;1.70;;;;;;;;;;5094524;28;20307;-80
2024/01/21 01:58:25;;;;;;;2.50;2.17;;;;;;;;;;5094198;28;20200;-80
2024/01/21 02:00:53;;;;;;;2.27;1.40;;;;;;;;;;5094160;28;20199;-81
2024/01/21 02:03:20;;;;;;;1.33;1.23;;;;;;;;;;5093948;28;20200;-79
2024/01/21 02:05:48;;;;;;;2.00;1.67;;;;;;;;;;5093464;28;20215;-79
2024/01/21 02:08:14;;;;;;;1.83;1.67;;;;;;;;;;5093749;28;20212;-79
2024/01/21 02:10:41;;;;;;;2.53;2.03;;;;;;;;;;5093984;28;20215;-80
2024/01/21 02:13:08;;;;;;;2.40;1.97;;;;;;;;;;5094012;28;20227;-80
2024/01/21 02:15:34;;;;;;;2.53;2.33;;;;;;;;;;5093255;28;20208;-80
2024/01/21 02:18:01;;;;;;;1.40;1.30;;;;;;;;;;5093942;28;20205;-79
2024/01/21 02:20:28;;;;;;;1.77;1.53;;;;;;;;;;5093310;28;20747;-80
2024/01/21 02:22:57;;;;;;;1.73;1.50;;;;;;;;;;5094187;28;20646;-78
2024/01/21 02:25:24;;;;;;;1.90;1.63;;;;;;;;;;5093582;28;20261;-79
2024/01/21 02:27:51;;;;;;;1.10;1.00;;;;;;;;;;5092924;28;20212;-79
2024/01/21 02:30:18;;;;;;;1.33;1.33;;;;;;;;;;5093373;28;20223;-79
2024/01/21 02:32:45;;;;;;;2.00;1.50;;;;;;;;;;5093211;28;20232;-79
2024/01/21 02:35:11;;;;;;;1.97;1.77;;;;;;;;;;5093588;28;20204;-79
2024/01/21 02:37:38;;;;;;;2.33;1.50;;;;;;;;;;5092920;28;20735;-79
2024/01/21 02:40:07;;;;;;;0.80;0.80;;;;;;;;;;5092896;28;20257;-79
2024/01/21 02:42:34;;;;;;;2.50;2.30;;;;;;;;;;5093795;28;20205;-79
2024/01/21 02:45:02;;;;;;;1.70;1.60;;;;;;;;;;5093095;28;20207;-79
2024/01/21 02:47:29;;;;;;;1.40;1.30;;;;;;;;;;5093159;28;20204;-80
2024/01/21 02:49:55;;;;;;;1.83;1.73;;;;;;;;;;5093389;28;20200;-78
2024/01/21 02:52:22;;;;;;;1.93;1.53;;;;;;;;;;5092928;28;20232;-78
2024/01/21 02:54:49;;;;;;;1.67;1.57;;;;;;;;;;5092954;28;20197;-79
2024/01/21 02:57:17;;;;;;;1.23;1.17;;;;;;;;;;5093063;28;20197;-79
2024/01/21 02:59:44;;;;;;;1.57;1.47;;;;;;;;;;5092552;28;20200;-79
2024/01/21 03:02:11;;;;;;;1.60;1.50;;;;;;;;;;5092883;28;20679;-79
2024/01/21 03:04:37;;;;;;;1.60;1.50;;;;;;;;;;5092517;28;20211;-79
2024/01/21 03:07:04;;;;;;;1.87;1.60;;;;;;;;;;5092981;28;20208;-79
2024/01/21 03:09:31;;;;;;;2.13;1.67;;;;;;;;;;5092303;28;20584;-79
2024/01/21 03:11:58;;;;;;;1.40;1.20;;;;;;;;;;5092781;28;20228;-79
2024/01/21 03:14:26;;;;;;;2.87;2.23;;;;;;;;;;5092604;28;20589;-79
2024/01/21 03:16:56;;;;;;;4.43;3.30;;;;;;;;;;5092646;28;20587;-79
2024/01/21 03:19:23;;;;;;;62.50;34.57;;;;;;;;;;5092050;28;20224;-78
2024/01/21 03:21:50;;;;;;;25.60;17.40;;;;;;;;;;5092559;28;20227;-79
2024/01/21 03:24:17;;;;;;;18.83;11.87;;;;;;;;;;5092567;28;20215;-78
2024/01/21 03:26:43;;;;;;;4.40;3.23;;;;;;;;;;5092435;28;20204;-82
2024/01/21 03:29:10;;;;;;;14.17;8.43;;;;;;;;;;5092623;28;20227;-83
2024/01/21 03:31:38;;;;;;;29.70;17.90;;;;;;;;;;5092315;28;20224;-82
2024/01/21 03:34:05;;;;;;;21.60;14.70;;;;;;;;;;5092290;28;20212;-82
2024/01/21 03:36:32;;;;;;;7.37;6.50;;;;;;;;;;5106000;28;20674;-83
2024/01/21 03:38:59;;;;;;;5.40;4.90;;;;;;;;;;5092433;28;20208;-82
2024/01/21 03:41:25;;;;;;;36.90;29.63;;;;;;;;;;5092480;28;20274;-82
2024/01/21 03:43:53;;;;;;;5.83;5.07;;;;;;;;;;5079229;28;20212;-83
2024/01/21 03:46:19;;;;;;;3.30;2.57;;;;;;;;;;5091745;28;20206;-84
2024/01/21 03:48:48;;;;;;;6.30;4.43;;;;;;;;;;5092564;28;20204;-83
2024/01/21 03:51:14;;;;;;;2.80;2.53;;;;;;;;;;5092439;28;20670;-83
2024/01/21 03:53:41;;;;;;;2.17;1.97;;;;;;;;;;5091989;28;20232;-82
2024/01/21 03:56:08;;;;;;;1.57;1.30;;;;;;;;;;5092360;28;20208;-82
2024/01/21 03:58:35;;;;;;;1.47;1.37;;;;;;;;;;5092428;28;20226;-83
2024/01/21 04:01:03;;;;;;;1.27;1.17;;;;;;;;;;5092313;28;20227;-82
2024/01/21 04:03:30;;;;;;;1.20;1.10;;;;;;;;;;5092150;28;20204;-83
2024/01/21 04:05:58;;;;;;;1.20;1.10;;;;;;;;;;5092197;28;20208;-80
2024/01/21 04:08:25;;;;;;;1.60;1.27;;;;;;;;;;5091699;28;20212;-80
2024/01/21 04:10:52;;;;;;;2.47;1.33;;;;;;;;;;5092340;28;20199;-80
2024/01/21 04:13:19;;;;;;;1.10;1.10;;;;;;;;;;5092220;28;20228;-82
2024/01/21 04:15:45;;;;;;;1.90;1.57;;;;;;;;;;5091328;28;20694;-80
2024/01/21 04:18:12;;;;;;;1.80;1.60;;;;;;;;;;5091783;28;20594;-81
2024/01/21 04:20:39;;;;;;;2.40;1.30;;;;;;;;;;5091417;28;20208;-82
2024/01/21 04:23:07;;;;;;;1.03;1.03;;;;;;;;;;5091803;28;20196;-82
2024/01/21 04:25:34;;;;;;;1.23;1.10;;;;;;;;;;5092094;28;20212;-83
2024/01/21 04:28:01;;;;;;;1.47;1.37;;;;;;;;;;5091539;28;20200;-81
2024/01/21 04:30:27;;;;;;;1.30;1.20;;;;;;;;;;5091445;28;20200;-82
2024/01/21 04:32:55;;;;;;;3.93;1.40;;;;;;;;;;5091449;28;20228;-81
2024/01/21 04:35:22;;;;;;;2.50;2.03;;;;;;;;;;5091603;28;20200;-81
2024/01/21 04:37:49;;;;;;;1.10;1.10;;;;;;;;;;5091456;28;20261;-82
2024/01/21 04:40:18;;;;;;;1.63;1.53;;;;;;;;;;5091119;28;20204;-82
2024/01/21 04:42:44;;;;;;;7.00;3.77;;;;;;;;;;5091533;28;20196;-85
2024/01/21 04:45:11;;;;;;;6.20;5.60;;;;;;;;;;5092230;28;20212;-83
2024/01/21 04:47:38;;;;;;;7.33;4.03;;;;;;;;;;5088396;28;20208;-79
2024/01/21 04:50:06;;;;;;;6.73;3.67;;;;;;;;;;5090834;28;20203;-80
2024/01/21 04:52:33;;;;;;;2.10;1.90;;;;;;;;;;5090639;28;20228;-79
2024/01/21 04:54:59;;;;;;;2.60;2.23;;;;;;;;;;5091139;28;20212;-80
2024/01/21 04:57:27;;;;;;;4.37;3.77;;;;;;;;;;5090976;28;20196;-80
2024/01/21 04:59:54;;;;;;;1.03;0.97;;;;;;;;;;5091041;28;20212;-80
2024/01/21 05:02:21;;;;;;;1.80;1.30;;;;;;;;;;5090501;28;20216;-79
2024/01/21 05:04:48;;;;;;;1.23;1.13;;;;;;;;;;5090585;28;20211;-79
2024/01/21 05:07:14;;;;;;;1.80;1.60;;;;;;;;;;5090221;28;20674;-78
2024/01/21 05:09:41;;;;;;;1.23;1.13;;;;;;;;;;5090380;28;20234;-78
2024/01/21 05:12:08;;;;;;;1.77;1.63;;;;;;;;;;5090875;28;20200;-78
2024/01/21 05:14:38;;;;;;;1.77;1.60;;;;;;;;;;5090488;28;20208;-80
2024/01/21 05:17:05;;;;;;;1.70;1.60;;;;;;;;;;5090575;28;20201;-81
2024/01/21 05:19:31;;;;;;;1.17;1.07;;;;;;;;;;5086060;28;20204;-81
2024/01/21 05:21:58;;;;;;;4.00;3.60;;;;;;;;;;5090240;28;20204;-81
2024/01/21 05:24:25;;;;;;;2.67;1.80;;;;;;;;;;5090731;28;20222;-81
2024/01/21 05:26:52;;;;;;;1.77;1.20;;;;;;;;;;5090361;28;20208;-81
2024/01/21 05:29:18;;;;;;;0.97;0.97;;;;;;;;;;5090538;28;20234;-80
2024/01/21 05:31:48;;;;;;;1.47;1.13;;;;;;;;;;5090740;28;20200;-81
2024/01/21 05:34:15;;;;;;;1.53;1.43;;;;;;;;;;5090094;28;20231;-81
2024/01/21 05:36:42;;;;;;;1.50;1.40;;;;;;;;;;5090205;28;20212;-79
2024/01/21 05:39:10;;;;;;;1.77;1.60;;;;;;;;;;5090174;28;20222;-81
2024/01/21 05:41:37;;;;;;;1.70;1.33;;;;;;;;;;5089843;28;20208;-81
2024/01/21 05:44:03;;;;;;;1.43;1.30;;;;;;;;;;5090119;28;20212;-80
2024/01/21 05:46:30;;;;;;;1.30;1.20;;;;;;;;;;5090495;28;20674;-81
2024/01/21 05:48:58;;;;;;;14.07;12.47;;;;;;;;;;5086586;28;20686;-79
2024/01/21 05:51:25;;;;;;;4.80;3.40;;;;;;;;;;5089819;28;20204;-79
2024/01/21 05:53:52;;;;;;;3.30;3.10;;;;;;;;;;5089209;28;20216;-80
2024/01/21 05:56:19;;;;;;;5.73;4.77;;;;;;;;;;5093819;28;20205;-80
2024/01/21 05:58:46;;;;;;;6.63;4.33;;;;;;;;;;5093739;28;20275;-80
2024/01/21 06:01:12;;;;;;;9.07;6.37;;;;;;;;;;5093319;28;20211;-81
2024/01/21 06:03:39;;;;;;;7.47;6.00;;;;;;;;;;5093112;28;20212;-80
2024/01/21 06:06:07;;;;;;;12.50;8.37;;;;;;;;;;5093715;28;20192;-81
2024/01/21 06:08:34;;;;;;;10.53;5.17;;;;;;;;;;5093738;28;20193;-80
2024/01/21 06:11:01;;;;;;;14.40;10.73;;;;;;;;;;5093213;28;20204;-80
2024/01/21 06:13:28;;;;;;;15.17;10.07;;;;;;;;;;5092672;28;20232;-78
2024/01/21 06:15:55;;;;;;;34.37;18.20;;;;;;;;;;5093483;28;20200;-78
2024/01/21 06:18:22;;;;;;;5.27;3.17;;;;;;;;;;5093222;28;20205;-79
2024/01/21 06:20:49;;;;;;;36.10;21.60;;;;;;;;;;5093562;28;20223;-78
2024/01/21 06:23:17;;;;;;;18.87;14.13;;;;;;;;;;5093165;28;20204;-78
2024/01/21 06:25:44;;;;;;;13.30;9.73;;;;;;;;;;5093600;28;20205;-79
2024/01/21 06:28:11;;;;;;;38.03;16.70;;;;;;;;;;5093039;28;20243;-78
2024/01/21 06:30:38;;;;;;;25.83;14.57;;;;;;;;;;5093103;28;20196;-78
2024/01/21 06:33:05;;;;;;;30.60;15.73;;;;;;;;;;5093731;28;20284;-78
2024/01/21 06:35:32;;;;;;;7.60;5.63;;;;;;;;;;5093431;28;20196;-78
2024/01/21 06:37:59;;;;;;;38.23;22.70;;;;;;;;;;5093020;28;20204;-78
2024/01/21 06:40:30;;;;;;;4.77;4.33;;;;;;;;;;5094489;28;20230;-77
2024/01/21 06:42:56;;;;;;;37.93;20.93;;;;;;;;;;5093269;28;20216;-79
2024/01/21 06:45:24;;;;;;;26.23;17.03;;;;;;;;;;5093130;28;20204;-78
2024/01/21 06:47:51;;;;;;;6.03;5.43;;;;;;;;;;5093797;28;20235;-77
2024/01/21 06:50:18;;;;;;;11.93;10.70;;;;;;;;;;5093002;28;20200;-78
2024/01/21 06:52:45;;;;;;;23.13;18.83;;;;;;;;;;5093091;28;20271;-77
2024/01/21 06:55:14;;;;;;;2.87;2.60;;;;;;;;;;5092948;28;20193;-78
2024/01/21 06:57:42;;;;;;;18.37;12.27;;;;;;;;;;5093206;28;20227;-78
2024/01/21 07:00:11;;;;;;;6.73;4.33;;;;;;;;;;5093290;28;20200;-80
2024/01/21 07:02:38;;;;;;;182.73;108.20;;;;;;;;;;5092569;28;20245;-80
2024/01/21 07:05:05;;;;;;;43.30;28.40;;;;;;;;;;5092976;28;20672;-79
2024/01/21 07:07:32;;;;;;;5.63;4.60;;;;;;;;;;5091236;28;20211;-79
2024/01/21 07:09:59;;;;;;;10.30;6.37;;;;;;;;;;5092689;28;20192;-79
2024/01/21 07:12:26;;;;;;;3.13;2.50;;;;;;;;;;5092573;28;20218;-79
2024/01/21 07:14:57;;;;;;;10.30;8.53;;;;;;;;;;5092506;28;20567;-77
2024/01/21 07:17:23;;;;;;;7.07;6.37;;;;;;;;;;5092516;28;20640;-76
2024/01/21 07:19:52;;;;;;;3.13;2.57;;;;;;;;;;5090267;28;20193;-75
2024/01/21 07:22:19;;;;;;;10.57;7.07;;;;;;;;;;5092330;28;20233;-76
2024/01/21 07:24:46;;;;;;;6.33;5.17;;;;;;;;;;5092559;28;20262;-78
2024/01/21 07:27:13;;;;;;;2.30;2.20;;;;;;;;;;5092064;28;20199;-79
2024/01/21 07:29:41;;;;;;;3.13;2.17;;;;;;;;;;5092400;28;20251;-79
2024/01/21 07:32:09;;;;;;;88.77;39.20;;;;;;;;;;5092710;28;20199;-79
2024/01/21 07:34:36;;;;;;;32.63;16.70;;;;;;;;;;5091710;28;20220;-75
2024/01/21 07:37:03;;;;;;;26.83;13.83;;;;;;;;;;5092087;28;20200;-75
2024/01/21 07:39:29;;;;;;;6.07;3.97;;;;;;;;;;5092138;28;20298;-73
2024/01/21 07:41:57;;;;;;;3.03;2.77;;;;;;;;;;5092205;28;20228;-75
2024/01/21 07:44:24;;;;;;;3.53;2.07;;;;;;;;;;5091592;28;20204;-76
2024/01/21 07:46:51;;;;;;;2.13;1.80;;;;;;;;;;5092010;28;20200;-76
2024/01/21 07:49:19;;;;;;;2.17;1.80;;;;;;;;;;5091590;28;20204;-78
2024/01/21 07:51:46;;;;;;;2.20;2.00;;;;;;;;;;5092252;28;20196;-77
2024/01/21 07:54:16;;;;;;;2.53;2.03;;;;;;;;;;5091698;28;20724;-77
2024/01/21 07:56:42;;;;;;;1.53;1.43;;;;;;;;;;5092062;28;20287;-77
2024/01/21 07:59:09;;;;;;;2.33;1.93;;;;;;;;;;5091392;28;20203;-77
2024/01/21 08:01:36;;;;;;;1.27;1.27;;;;;;;;;;5091912;28;20192;-77
2024/01/21 08:04:03;;;;;;;1.40;1.30;;;;;;;;;;5091421;28;20202;-77
2024/01/21 08:06:31;;;;;;;8.73;6.73;;;;;;;;;;5091337;28;20705;-77
2024/01/21 08:08:58;;;;;;;16.73;11.83;;;;;;;;;;5078645;28;20208;-77
2024/01/21 08:11:25;;;;;;;6.83;4.87;;;;;;;;;;5090847;28;20212;-78
2024/01/21 08:13:52;;;;;;;3.40;3.10;;;;;;;;;;5090330;28;20220;-77
2024/01/21 08:16:18;;;;;;;4.07;3.03;;;;;;;;;;5090288;28;20685;-77
2024/01/21 08:18:45;;;;;;;3.57;2.57;;;;;;;;;;5090210;28;20230;-77
2024/01/21 08:21:15;;;;;;;2.47;1.90;;;;;;;;;;5090376;28;20208;-78
2024/01/21 08:23:43;;;;;;;1.87;1.73;;;;;;;;;;5091935;28;20257;-77
2024/01/21 08:26:10;;;;;;;3.03;2.73;;;;;;;;;;5102414;28;20207;-77
2024/01/21 08:28:38;;;;;;;4.80;3.23;;;;;;;;;;5091075;28;20228;-77
2024/01/21 08:31:05;;;;;;;1.63;1.53;;;;;;;;;;5091243;28;20203;-76
2024/01/21 08:33:31;;;;;;;3.50;2.73;;;;;;;;;;5090690;28;20224;-76
2024/01/21 08:35:59;;;;;;;6.43;4.13;;;;;;;;;;5090988;28;20200;-77
2024/01/21 08:38:26;;;;;;;1.80;1.70;;;;;;;;;;5090241;28;20223;-76
2024/01/21 08:40:56;;;;;;;3.00;1.57;;;;;;;;;;5091441;28;20226;-76
2024/01/21 08:43:26;;;;;;;4.80;2.53;;;;;;;;;;5090709;28;20204;-76
2024/01/21 08:45:55;;;;;;;2.53;2.03;;;;;;;;;;5091146;28;20208;-77
2024/01/21 08:48:22;;;;;;;3.37;2.50;;;;;;;;;;5091022;28;20211;-76
2024/01/21 08:50:49;;;;;;;1.70;1.60;;;;;;;;;;5090851;28;20204;-77
2024/01/21 08:53:16;;;;;;;1.50;1.40;;;;;;;;;;5090448;28;20678;-77
2024/01/21 08:55:42;;;;;;;1.10;1.10;;;;;;;;;;5091173;28;20746;-76
2024/01/21 08:58:10;;;;;;;38.77;20.27;;;;;;;;;;5090142;28;20197;-76
2024/01/21 09:00:37;;;;;;;2.07;1.83;;;;;;;;;;5091180;28;20253;-76
2024/01/21 09:03:05;;;;;;;3.90;2.87;;;;;;;;;;5090430;28;20212;-77
2024/01/21 09:05:32;;;;;;;2.23;1.67;;;;;;;;;;5091207;28;20581;-76
2024/01/21 09:07:59;;;;;;;3.00;1.97;;;;;;;;;;5090128;28;20223;-76
2024/01/21 09:10:26;;;;;;;2.27;1.90;;;;;;;;;;5090862;28;20204;-76
2024/01/21 09:12:55;;;;;;;1.53;1.43;;;;;;;;;;5090804;28;20204;-77
2024/01/21 09:15:24;;;;;;;1.63;1.53;;;;;;;;;;5090865;28;20311;-76
2024/01/21 09:17:50;;;;;;;1.40;1.30;;;;;;;;;;5090360;28;20196;-76
2024/01/21 09:20:17;;;;;;;2.00;1.30;;;;;;;;;;5090833;28;20227;-77
2024/01/21 09:22:45;;;;;;;1.40;1.30;;;;;;;;;;5090460;28;20708;-76
2024/01/21 09:25:11;;;;;;;1.17;0.97;;;;;;;;;;5090625;28;20592;-77
2024/01/21 09:27:38;;;;;;;1.43;1.33;;;;;;;;;;5090595;28;20204;-77
2024/01/21 09:30:06;;;;;;;1.43;1.30;;;;;;;;;;5093038;28;20811;-76
2024/01/21 09:32:34;;;;;;;1.43;1.33;;;;;;;;;;5094585;28;20193;-77
2024/01/21 09:35:01;;;;;;;1.37;1.27;;;;;;;;;;5094193;28;20621;-77
2024/01/21 09:37:28;;;;;;;1.10;1.10;;;;;;;;;;5094876;28;20295;-77
2024/01/21 09:39:55;;;;;;;1.90;1.77;;;;;;;;;;5094313;28;20207;-77
2024/01/21 09:42:22;;;;;;;1.20;1.10;;;;;;;;;;5094560;28;20200;-77
2024/01/21 09:44:49;;;;;;;1.30;1.20;;;;;;;;;;5094027;28;20211;-78
2024/01/21 09:47:17;;;;;;;1.27;1.17;;;;;;;;;;5094267;28;20204;-79
2024/01/21 09:49:46;;;;;;;1.10;1.10;;;;;;;;;;5094438;28;20205;-78
2024/01/21 09:52:15;;;;;;;2.63;1.20;;;;;;;;;;5094372;28;20212;-78
2024/01/21 09:54:42;;;;;;;1.30;1.20;;;;;;;;;;5094021;28;20760;-78
2024/01/21 09:57:11;;;;;;;1.27;1.17;;;;;;;;;;5094428;28;20626;-79
2024/01/21 09:59:38;;;;;;;1.60;1.50;;;;;;;;;;5094033;28;20200;-79
2024/01/21 10:02:05;;;;;;;2.10;1.90;;;;;;;;;;5094109;28;20204;-79
2024/01/21 10:04:33;;;;;;;2.20;1.87;;;;;;;;;;5094258;28;20261;-79
2024/01/21 10:07:02;;;;;;;6.70;5.13;;;;;;;;;;5094141;28;20269;-79
2024/01/21 10:09:30;;;;;;;2.57;2.27;;;;;;;;;;5094253;28;20215;-79
2024/01/21 10:11:59;;;;;;;9.73;6.20;;;;;;;;;;5093943;28;20212;-80
2024/01/21 10:14:26;;;;;;;5.10;4.60;;;;;;;;;;5093518;28;20722;-80
2024/01/21 10:16:53;;;;;;;5.77;4.70;;;;;;;;;;5093629;28;20201;-80
2024/01/21 10:19:26;;;;;;;3.23;2.93;;;;;;;;;;5093567;28;20236;-80
2024/01/21 10:21:54;;;;;;;10.17;8.17;;;;;;;;;;5093917;28;20257;-80
2024/01/21 10:24:23;;;;;;;2.33;2.13;;;;;;;;;;5093574;28;20196;-80
2024/01/21 10:26:50;;;;;;;2.00;1.60;;;;;;;;;;5092902;28;20200;-80
2024/01/21 10:29:17;;;;;;;3.70;3.40;;;;;;;;;;5093756;28;20230;-80
2024/01/21 10:31:44;;;;;;;7.60;4.43;;;;;;;;;;5093640;28;20196;-80
2024/01/21 10:34:10;;;;;;;3.23;3.00;;;;;;;;;;5093130;28;20724;-80
2024/01/21 10:36:38;;;;;;;3.13;2.83;;;;;;;;;;5093470;28;20204;-80
2024/01/21 10:39:06;;;;;;;12.53;11.23;;;;;;;;;;5093335;28;20200;-80
2024/01/21 10:41:35;;;;;;;3.43;3.13;;;;;;;;;;5093253;28;20205;-80
2024/01/21 10:44:02;;;;;;;2.70;2.00;;;;;;;;;;5093051;28;20283;-80
2024/01/21 10:46:32;;;;;;;9.30;6.90;;;;;;;;;;5092935;28;20236;-80
2024/01/21 10:49:00;;;;;;;6.87;6.00;;;;;;;;;;5092701;28;20203;-80
2024/01/21 10:51:27;;;;;;;10.90;7.40;;;;;;;;;;5093098;28;20204;-81
2024/01/21 10:53:59;;;;;;;5.63;4.40;;;;;;;;;;5092653;28;20204;-80
2024/01/21 10:56:26;;;;;;;3.13;2.87;;;;;;;;;;5092488;28;20556;-80
2024/01/21 10:58:55;;;;;;;6.70;5.37;;;;;;;;;;5092888;28;20197;-80
2024/01/21 11:01:23;;;;;;;1.63;1.53;;;;;;;;;;5092750;28;20201;-80
2024/01/21 11:03:55;;;;;;;1.87;1.30;;;;;;;;;;5092798;28;20294;-80
2024/01/21 11:06:22;;;;;;;2.63;2.17;;;;;;;;;;5093103;28;20196;-80
2024/01/21 11:08:50;;;;;;;1.00;1.00;;;;;;;;;;5092904;28;20203;-80
2024/01/21 11:11:20;;;;;;;1.63;1.30;;;;;;;;;;5093006;28;20614;-80
2024/01/21 11:13:48;;;;;;;2.00;1.70;;;;;;;;;;5092362;28;20200;-79
2024/01/21 11:16:37;;;;;;;1.27;1.17;;;;;;;;;;5092766;28;20204;-80
2024/01/21 11:19:05;;;;;;;1.40;1.30;;;;;;;;;;5092685;28;20201;-79
2024/01/21 11:21:33;;;;;;;1.70;1.60;;;;;;;;;;5092697;28;20851;-79
2024/01/21 11:24:00;;;;;;;1.47;1.37;;;;;;;;;;5092148;28;20215;-80
2024/01/21 11:26:29;;;;;;;3.83;2.43;;;;;;;;;;5092532;28;20673;-80
2024/01/21 11:28:58;;;;;;;3.10;2.80;;;;;;;;;;5092062;28;20216;-79
2024/01/21 11:31:26;;;;;;;2.07;1.87;;;;;;;;;;5092515;28;20239;-80
2024/01/21 11:34:04;;;;;;;2.33;1.70;;;;;;;;;;5091865;28;20223;-79
2024/01/21 11:36:32;;;;;;;2.67;1.87;;;;;;;;;;5092486;28;20242;-80
2024/01/21 11:39:00;;;;;;;1.50;1.40;;;;;;;;;;5092105;28;20192;-79
2024/01/21 11:41:36;;;;;;;4.10;2.33;;;;;;;;;;5092338;28;20232;-80
2024/01/21 11:44:09;;;;;;;2.03;1.70;;;;;;;;;;5091460;28;20195;-79
2024/01/21 11:46:36;;;;;;;1.73;1.60;;;;;;;;;;5092203;28;20701;-79
2024/01/21 11:49:04;;;;;;;2.07;1.57;;;;;;;;;;5091983;28;20208;-80
2024/01/21 11:51:31;;;;;;;2.00;1.60;;;;;;;;;;5091868;28;20196;-80
2024/01/21 11:53:58;;;;;;;3.83;3.00;;;;;;;;;;5091396;28;20204;-80
2024/01/21 11:56:25;;;;;;;2.93;1.83;;;;;;;;;;5091455;28;20189;-79
2024/01/21 11:58:51;;;;;;;1.67;1.53;;;;;;;;;;5091843;28;20204;-79
2024/01/21 12:01:20;;;;;;;2.97;2.10;;;;;;;;;;5091975;28;20200;-78
2024/01/21 12:03:48;;;;;;;1.27;1.17;;;;;;;;;;5091600;28;20713;-78
2024/01/21 12:06:16;;;;;;;3.73;3.27;;;;;;;;;;5091681;28;20204;-78
2024/01/21 12:08:44;;;;;;;2.60;2.40;;;;;;;;;;5091940;28;20207;-78
2024/01/21 12:11:11;;;;;;;2.00;1.80;;;;;;;;;;5091883;28;20200;-78
2024/01/21 12:13:39;;;;;;;2.33;1.90;;;;;;;;;;5091719;28;20204;-78
2024/01/21 12:16:08;;;;;;;2.27;1.53;;;;;;;;;;5091173;28;20226;-77
2024/01/21 12:18:38;;;;;;;2.17;1.40;;;;;;;;;;5091317;28;20207;-77
2024/01/21 12:21:05;;;;;;;0.90;0.90;;;;;;;;;;5091487;28;20200;-78
2024/01/21 12:23:35;;;;;;;1.63;1.40;;;;;;;;;;5091636;28;20314;-78
2024/01/21 12:26:02;;;;;;;1.10;1.00;;;;;;;;;;5091072;28;20200;-78
2024/01/21 12:28:29;;;;;;;1.37;1.27;;;;;;;;;;5091312;28;20224;-78
2024/01/21 12:30:56;;;;;;;11.30;5.40;;;;;;;;;;5091761;28;20683;-78
2024/01/21 12:33:23;;;;;;;256.53;73.27;;;;;;;;;;5090789;28;20207;-77
2024/01/21 12:35:50;;;;;;;23.07;10.87;;;;;;;;;;5091204;28;20232;-77
2024/01/21 12:38:17;;;;;;;4.50;3.37;;;;;;;;;;5090627;28;20200;-77
2024/01/21 12:40:46;;;;;;;1.50;1.40;;;;;;;;;;5091371;28;20212;-77
2024/01/21 12:43:16;;;;;;;1.27;1.10;;;;;;;;;;5091003;28;20628;-76
2024/01/21 12:45:43;;;;;;;2.10;1.90;;;;;;;;;;5090798;28;20618;-77
2024/01/21 12:48:10;;;;;;;2.50;2.30;;;;;;;;;;5090599;28;20199;-76
2024/01/21 12:50:36;;;;;;;1.27;1.17;;;;;;;;;;5091181;28;20200;-77
2024/01/21 12:53:04;;;;;;;2.00;1.63;;;;;;;;;;5091001;28;20208;-76
2024/01/21 12:55:30;;;;;;;1.63;1.53;;;;;;;;;;5091066;28;20216;-76
2024/01/21 12:57:58;;;;;;;1.70;1.40;;;;;;;;;;5090638;28;20204;-77
2024/01/21 13:00:26;;;;;;;1.50;1.40;;;;;;;;;;5090916;28;20207;-76
2024/01/21 13:02:56;;;;;;;3.80;3.10;;;;;;;;;;5090939;28;20207;-76
2024/01/21 13:05:22;;;;;;;2.40;2.20;;;;;;;;;;5090268;28;20557;-76
2024/01/21 13:07:50;;;;;;;2.23;2.03;;;;;;;;;;5090515;28;20220;-76
2024/01/21 13:10:17;;;;;;;9.43;5.63;;;;;;;;;;5091219;28;20412;-76
2024/01/21 13:12:43;;;;;;;7.93;4.90;;;;;;;;;;5090264;28;20257;-75
2024/01/21 13:15:13;;;;;;;4.60;3.63;;;;;;;;;;5090293;28;20223;-75
2024/01/21 13:17:40;;;;;;;2.63;2.20;;;;;;;;;;5090591;28;20674;-75
2024/01/21 13:20:08;;;;;;;1.80;1.70;;;;;;;;;;5090777;28;20207;-75
2024/01/21 13:22:35;;;;;;;3.50;3.20;;;;;;;;;;5090455;28;20204;-75
2024/01/21 13:25:05;;;;;;;2.23;2.00;;;;;;;;;;5090475;28;20220;-75
2024/01/21 13:27:40;;;;;;;1.37;1.20;;;;;;;;;;5090371;28;20205;-75
2024/01/21 13:32:55;;;;;;;3.20;2.77;;;;;;;;;;5090539;28;20212;-75
2024/01/21 13:35:22;;;;;;;2.70;1.87;;;;;;;;;;5089929;28;20796;-75
2024/01/21 13:37:49;;;;;;;2.60;2.17;;;;;;;;;;5090360;28;20700;-75
2024/01/21 13:40:17;;;;;;;1.63;1.43;;;;;;;;;;5090332;28;20287;-75
2024/01/21 13:42:44;;;;;;;2.57;2.13;;;;;;;;;;5090255;28;20204;-75
2024/01/21 13:45:11;;;;;;;5.17;2.10;;;;;;;;;;5090581;28;20205;-75
2024/01/21 13:47:38;;;;;;;2.43;2.07;;;;;;;;;;5090303;28;20208;-75
2024/01/21 13:50:07;;;;;;;3.07;2.53;;;;;;;;;;5090527;28;20196;-76
2024/01/21 13:52:34;;;;;;;1.83;1.73;;;;;;;;;;5090255;28;20631;-75
2024/01/21 13:55:04;;;;;;;4.37;2.93;;;;;;;;;;5090258;28;20220;-76
2024/01/21 13:57:31;;;;;;;4.67;3.07;;;;;;;;;;5090705;28;20273;-76
2024/01/21 13:59:58;;;;;;;2.57;2.23;;;;;;;;;;5090223;28;20214;-76
2024/01/21 14:02:25;;;;;;;11.90;8.57;;;;;;;;;;5090307;28;20196;-76
2024/01/21 14:04:52;;;;;;;9.47;7.03;;;;;;;;;;5090102;28;20200;-76
2024/01/21 14:07:20;;;;;;;15.10;10.13;;;;;;;;;;5090468;28;20233;-77
2024/01/21 14:09:47;;;;;;;3.50;2.53;;;;;;;;;;5090381;28;20192;-76
2024/01/21 14:12:16;;;;;;;7.73;5.33;;;;;;;;;;5089933;28;20241;-77
2024/01/21 14:14:43;;;;;;;6.17;4.70;;;;;;;;;;5089789;28;20258;-77
2024/01/21 14:17:11;;;;;;;4.13;3.60;;;;;;;;;;5093620;28;20671;-77
2024/01/21 14:19:38;;;;;;;5.30;4.57;;;;;;;;;;5093838;28;20204;-78
2024/01/21 14:22:04;;;;;;;3.90;3.57;;;;;;;;;;5093229;28;20208;-77
2024/01/21 14:24:35;;;;;;;7.03;4.87;;;;;;;;;;5093913;28;20200;-78
2024/01/21 14:27:02;;;;;;;5.77;4.50;;;;;;;;;;5093426;28;20758;-78
2024/01/21 14:29:32;;;;;;;3.80;2.80;;;;;;;;;;5093490;28;20733;-78
2024/01/21 14:31:58;;;;;;;8.40;5.73;;;;;;;;;;5093344;28;20208;-78
2024/01/21 14:34:25;;;;;;;4.53;3.97;;;;;;;;;;5093364;28;20204;-78
2024/01/21 14:36:52;;;;;;;3.07;2.87;;;;;;;;;;5093447;28;20281;-78
2024/01/21 14:39:19;;;;;;;3.30;3.00;;;;;;;;;;5092908;28;20200;-78
2024/01/21 14:41:47;;;;;;;11.47;7.43;;;;;;;;;;5093533;28;20200;-78
2024/01/21 14:44:14;;;;;;;2.10;1.90;;;;;;;;;;5093375;28;20211;-79